Time;durP1;ratioP1;P1;durP2;ratioP2;P2;SDS_P1;SDS_P2;PMS_P1;PMS_P2;Temp;Humidity;BMP_temperature;BMP_pressure;BME280_temperature;BME280_humidity;BME280_pressure;Samples;Min_cycle;Max_cycle;Signal;HPM_P1;HPM_P2
2021/01/26 00:00:18;;;;;;;4.53;3.45;;;0.30;81.70;;;;;;5015016;28;20053;-81
2021/01/26 00:02:44;;;;;;;4.82;3.55;;;0.30;81.50;;;;;;5014854;28;20049;-84
2021/01/26 00:05:10;;;;;;;6.70;4.35;;;0.30;81.10;;;;;;5014934;28;20112;-85
2021/01/26 00:07:36;;;;;;;7.38;4.38;;;0.30;81.20;;;;;;5014987;28;20029;-86
2021/01/26 00:10:04;;;;;;;7.72;4.65;;;0.30;81.20;;;;;;5014626;28;20022;-86
2021/01/26 00:12:30;;;;;;;7.85;4.60;;;0.20;81.10;;;;;;5014836;28;20117;-85
2021/01/26 00:14:55;;;;;;;6.95;4.47;;;0.20;80.90;;;;;;5014564;28;20101;-86
2021/01/26 00:17:21;;;;;;;7.13;4.68;;;0.20;80.80;;;;;;5014898;28;20037;-87
2021/01/26 00:19:48;;;;;;;7.40;5.07;;;0.10;81.20;;;;;;5014828;28;20061;-85
2021/01/26 00:22:13;;;;;;;6.32;4.47;;;0.10;81.40;;;;;;5017468;28;20195;-86
2021/01/26 00:24:39;;;;;;;9.75;5.03;;;0.20;81.30;;;;;;5028734;28;20042;-86
2021/01/26 00:27:05;;;;;;;7.18;5.22;;;0.10;81.40;;;;;;5015140;28;20024;-85
2021/01/26 00:29:30;;;;;;;7.47;5.20;;;0.10;81.30;;;;;;5015212;28;20026;-87
2021/01/26 00:31:56;;;;;;;6.78;4.93;;;0.00;81.40;;;;;;5025093;28;20032;-86
2021/01/26 00:34:22;;;;;;;9.15;5.38;;;0.00;81.50;;;;;;5016355;28;20072;-86
2021/01/26 00:36:47;;;;;;;7.65;5.68;;;-0.10;81.70;;;;;;4998522;28;20038;-86
2021/01/26 00:39:13;;;;;;;10.40;5.85;;;0.00;81.60;;;;;;5015291;28;20022;-86
2021/01/26 00:41:38;;;;;;;9.55;6.20;;;-0.10;81.70;;;;;;5018352;28;20029;-88
2021/01/26 00:44:04;;;;;;;9.02;6.13;;;-0.10;81.60;;;;;;5015202;28;20022;-88
2021/01/26 00:46:30;;;;;;;9.60;6.43;;;-0.20;81.40;;;;;;5015206;28;20542;-88
2021/01/26 00:48:56;;;;;;;7.95;5.70;;;-0.20;81.30;;;;;;5015448;28;20040;-77
2021/01/26 00:51:21;;;;;;;9.27;6.28;;;-0.20;81.30;;;;;;5013751;28;20367;-77
2021/01/26 00:53:47;;;;;;;8.85;6.20;;;-0.30;81.20;;;;;;4997369;28;20507;-77
2021/01/26 00:56:13;;;;;;;9.30;6.15;;;-0.30;81.20;;;;;;5013868;28;20037;-81
2021/01/26 00:58:38;;;;;;;10.68;6.60;;;-0.20;81.00;;;;;;5013761;28;20079;-77
2021/01/26 01:01:04;;;;;;;10.52;6.45;;;-0.30;80.80;;;;;;5013399;28;20112;-77
2021/01/26 01:03:30;;;;;;;11.30;7.03;;;-0.30;80.60;;;;;;5013629;28;20051;-77
2021/01/26 01:05:57;;;;;;;11.35;6.65;;;-0.40;80.00;;;;;;5013411;28;20030;-86
2021/01/26 01:08:24;;;;;;;11.15;6.55;;;-0.40;79.90;;;;;;5015044;28;20080;-77
2021/01/26 01:10:51;;;;;;;10.23;6.25;;;-0.50;79.70;;;;;;5013537;28;20486;-78
2021/01/26 01:13:17;;;;;;;11.25;6.95;;;-0.50;79.30;;;;;;5013501;28;20499;-77
2021/01/26 01:15:42;;;;;;;8.98;6.07;;;-0.60;78.80;;;;;;5013157;28;20034;-77
2021/01/26 01:18:09;;;;;;;13.57;6.40;;;-0.70;78.60;;;;;;5013210;28;20050;-76
2021/01/26 01:20:35;;;;;;;11.98;5.97;;;-0.70;78.60;;;;;;5013503;28;20490;-76
2021/01/26 01:23:01;;;;;;;12.45;6.20;;;-0.70;78.60;;;;;;5013294;28;20030;-77
2021/01/26 01:25:27;;;;;;;9.70;6.13;;;-0.70;78.50;;;;;;5012746;28;20026;-80
2021/01/26 01:27:54;;;;;;;9.93;6.43;;;-0.60;78.20;;;;;;5015505;28;20033;-78
2021/01/26 01:30:23;;;;;;;10.48;5.93;;;-0.70;77.80;;;;;;5015797;28;20075;-83
2021/01/26 01:32:49;;;;;;;10.63;5.75;;;-0.60;77.70;;;;;;5014613;28;20040;-83
2021/01/26 01:35:17;;;;;;;11.40;6.28;;;-0.60;77.40;;;;;;5014320;28;20651;-77
2021/01/26 01:37:42;;;;;;;9.93;6.03;;;-0.60;77.20;;;;;;5013222;28;20030;-82
2021/01/26 01:40:12;;;;;;;9.85;5.78;;;-0.60;77.10;;;;;;5012988;28;20041;-78
2021/01/26 01:42:37;;;;;;;9.82;5.90;;;-0.70;77.10;;;;;;5013056;28;20033;-81
2021/01/26 01:45:06;;;;;;;10.57;6.00;;;-0.70;77.50;;;;;;4996591;28;20033;-78
2021/01/26 01:47:40;;;;;;;12.57;6.75;;;-0.80;78.30;;;;;;5012791;28;20026;-75
2021/01/26 01:50:10;;;;;;;17.23;7.05;;;-0.80;79.10;;;;;;5013278;28;20454;-84
2021/01/26 01:52:38;;;;;;;10.95;6.40;;;-0.90;79.80;;;;;;5012781;28;20030;-76
2021/01/26 01:55:13;;;;;;;11.48;7.30;;;-0.90;80.30;;;;;;5012811;28;20513;-81
2021/01/26 01:57:53;;;;;;;11.70;6.57;;;-0.90;80.60;;;;;;5013916;28;20061;-79
2021/01/26 02:00:20;;;;;;;13.80;6.95;;;-1.00;80.70;;;;;;5012522;28;20034;-77
2021/01/26 02:02:52;;;;;;;12.50;6.63;;;-0.90;80.70;;;;;;5012507;28;20046;-83
2021/01/26 02:05:19;;;;;;;13.18;6.38;;;-0.90;80.60;;;;;;5013758;28;20080;-83
2021/01/26 02:07:44;;;;;;;15.32;7.35;;;-0.90;80.60;;;;;;5012538;28;20026;-79
2021/01/26 02:10:11;;;;;;;13.50;6.47;;;-0.90;80.30;;;;;;5012383;28;20621;-77
2021/01/26 02:12:37;;;;;;;13.98;7.45;;;-0.80;79.90;;;;;;5012491;28;20026;-81
2021/01/26 02:15:04;;;;;;;13.70;6.43;;;-0.80;79.60;;;;;;5012592;28;20034;-86
2021/01/26 02:18:11;;;;;;;9.95;6.05;;;-0.80;79.10;;;;;;5013472;28;20140;-78
2021/01/26 02:21:19;;;;;;;10.73;5.95;;;-0.70;78.60;;;;;;4984348;28;20065;-77
2021/01/26 02:24:17;;;;;;;9.40;6.03;;;-0.70;78.20;;;;;;5012417;28;20117;-78
2021/01/26 02:27:20;;;;;;;11.38;5.85;;;-0.70;78.10;;;;;;4979863;28;20037;-79
2021/01/26 02:30:03;;;;;;;9.80;6.05;;;-0.50;77.80;;;;;;5012203;28;20026;-76
2021/01/26 02:32:45;;;;;;;8.93;5.53;;;-0.40;77.60;;;;;;5017970;28;20025;-81
2021/01/26 02:35:48;;;;;;;7.60;4.78;;;-0.40;77.30;;;;;;5011842;28;20076;-77
2021/01/26 02:38:29;;;;;;;6.53;4.03;;;-0.30;76.40;;;;;;5011827;28;20033;-77
2021/01/26 02:41:11;;;;;;;6.03;4.15;;;-0.40;75.50;;;;;;5011616;28;20029;-77
2021/01/26 02:43:47;;;;;;;7.05;4.35;;;-0.40;75.10;;;;;;5009094;28;20026;-82
2021/01/26 02:46:41;;;;;;;6.90;4.60;;;-0.40;74.70;;;;;;5013200;28;20101;-83
2021/01/26 02:49:22;;;;;;;7.47;4.20;;;-0.30;74.40;;;;;;5013134;28;20035;-77
2021/01/26 02:52:02;;;;;;;8.68;5.05;;;-0.40;73.90;;;;;;5012030;28;20384;-76
2021/01/26 02:54:37;;;;;;;8.07;4.90;;;-0.40;74.50;;;;;;5011716;28;20109;-75
2021/01/26 02:57:08;;;;;;;8.13;4.95;;;-0.40;74.70;;;;;;5012084;28;20124;-83
2021/01/26 03:00:04;;;;;;;6.57;3.90;;;-0.50;74.80;;;;;;5013370;28;20060;-76
2021/01/26 03:02:35;;;;;;;;;;;-0.50;74.80;;;;;;5007457;28;20124;-82
2021/01/26 03:05:15;;;;;;;7.32;4.00;;;-0.50;75.00;;;;;;5011754;28;19952;-81
2021/01/26 03:07:53;;;;;;;7.30;4.30;;;-0.50;75.00;;;;;;5013192;28;20101;-80
2021/01/26 03:10:22;;;;;;;8.60;4.35;;;-0.60;75.20;;;;;;5012061;28;20615;-77
2021/01/26 03:12:56;;;;;;;10.32;4.90;;;-0.60;76.20;;;;;;5012064;28;20037;-76
2021/01/26 03:15:29;;;;;;;8.13;5.03;;;-0.50;76.10;;;;;;5011826;28;20084;-75
2021/01/26 03:17:59;;;;;;;8.30;4.88;;;-0.50;76.00;;;;;;4996640;28;20030;-76
2021/01/26 03:20:27;;;;;;;11.80;4.93;;;-0.50;76.10;;;;;;5011772;28;20108;-78
2021/01/26 03:22:56;;;;;;;12.23;5.00;;;-0.60;76.20;;;;;;5012103;28;20125;-77
2021/01/26 03:25:25;;;;;;;10.35;5.65;;;-0.60;76.30;;;;;;5013151;28;20077;-76
2021/01/26 03:27:59;;;;;;;7.07;4.45;;;-0.60;76.50;;;;;;5011656;28;20026;-75
2021/01/26 03:30:35;;;;;;;11.20;5.15;;;-0.60;76.80;;;;;;5011860;28;20383;-76
2021/01/26 03:33:05;;;;;;;7.80;5.10;;;-0.50;76.90;;;;;;4995393;28;20068;-75
2021/01/26 03:35:31;;;;;;;9.35;5.55;;;-0.50;76.70;;;;;;5011790;28;20445;-76
2021/01/26 03:38:14;;;;;;;9.63;5.70;;;-0.40;76.50;;;;;;5017222;28;20022;-75
2021/01/26 03:40:40;;;;;;;9.85;4.80;;;-0.40;76.10;;;;;;5010180;28;20517;-76
2021/01/26 03:43:07;;;;;;;10.23;4.97;;;-0.40;75.90;;;;;;5011631;28;20061;-75
2021/01/26 03:45:32;;;;;;;8.95;5.15;;;-0.40;75.90;;;;;;5011710;28;20033;-75
2021/01/26 03:48:13;;;;;;;9.45;5.18;;;-0.50;75.80;;;;;;5011232;28;20022;-75
2021/01/26 03:51:02;;;;;;;11.73;5.05;;;-0.50;74.90;;;;;;5014836;28;20026;-76
2021/01/26 03:53:33;;;;;;;7.40;4.20;;;-0.40;74.50;;;;;;5004496;28;20030;-74
2021/01/26 03:56:19;;;;;;;10.82;4.63;;;-0.40;73.10;;;;;;5015047;28;20068;-75
2021/01/26 03:58:49;;;;;;;;;;;-0.40;72.10;;;;;;5015374;28;20549;-75
2021/01/26 04:01:23;;;;;;;9.27;5.13;;;-0.50;72.10;;;;;;5014637;28;19909;-82
2021/01/26 04:04:02;;;;;;;10.30;5.50;;;-0.40;71.70;;;;;;5014717;28;20054;-75
2021/01/26 04:06:34;;;;;;;10.20;5.43;;;-0.50;72.30;;;;;;5016164;28;20053;-83
2021/01/26 04:09:16;;;;;;;13.52;5.40;;;-0.50;72.50;;;;;;5015990;28;20541;-75
2021/01/26 04:11:56;;;;;;;7.93;4.35;;;-0.50;72.80;;;;;;5014420;28;20064;-75
2021/01/26 04:14:44;;;;;;;8.38;4.88;;;-0.50;72.80;;;;;;5014517;28;20062;-81
2021/01/26 04:17:16;;;;;;;8.85;5.05;;;-0.50;72.80;;;;;;5014452;28;20034;-75
2021/01/26 04:19:48;;;;;;;9.77;5.22;;;-0.60;73.30;;;;;;5014671;28;20109;-75
2021/01/26 04:22:17;;;;;;;11.60;6.03;;;-0.60;74.30;;;;;;5015717;28;20021;-79
2021/01/26 04:24:43;;;;;;;7.50;4.63;;;-0.60;73.40;;;;;;5014505;28;20022;-75
2021/01/26 04:27:13;;;;;;;7.80;4.90;;;-0.50;73.10;;;;;;5014393;28;20022;-79
2021/01/26 04:29:38;;;;;;;8.90;4.97;;;-0.50;72.80;;;;;;5015661;28;20474;-75
2021/01/26 04:32:04;;;;;;;17.38;8.30;;;-0.50;72.70;;;;;;5015606;28;20040;-81
2021/01/26 04:34:31;;;;;;;14.45;6.80;;;-0.60;72.90;;;;;;5015344;28;20099;-82
2021/01/26 04:36:57;;;;;;;13.45;6.43;;;-0.50;73.20;;;;;;5014207;28;20431;-75
2021/01/26 04:39:22;;;;;;;9.45;5.53;;;-0.50;73.30;;;;;;5014199;28;20141;-76
2021/01/26 04:42:19;;;;;;;8.23;4.57;;;-0.50;73.00;;;;;;5015512;28;20029;-76
2021/01/26 04:45:17;;;;;;;8.05;5.25;;;-0.40;72.50;;;;;;5014358;28;20108;-82
2021/01/26 04:47:55;;;;;;;13.07;4.68;;;-0.50;72.80;;;;;;5002375;28;20560;-79
2021/01/26 04:50:33;;;;;;;9.80;5.32;;;-0.50;72.80;;;;;;5015252;28;20034;-78
2021/01/26 04:53:25;;;;;;;10.07;4.63;;;-0.40;72.70;;;;;;5013784;28;20021;-76
2021/01/26 04:55:56;;;;;;;8.32;5.05;;;-0.50;72.80;;;;;;5015132;28;20498;-76
2021/01/26 04:58:54;;;;;;;7.18;4.50;;;-0.50;73.00;;;;;;5013764;28;20046;-76
2021/01/26 05:01:29;;;;;;;10.55;5.00;;;-0.50;72.90;;;;;;5012683;28;20026;-76
2021/01/26 05:03:55;;;;;;;7.72;4.35;;;-0.50;72.60;;;;;;5013648;28;20446;-75
2021/01/26 05:06:25;;;;;;;9.48;4.03;;;-0.50;72.30;;;;;;5013769;28;20080;-79
2021/01/26 05:08:53;;;;;;;8.18;3.97;;;-0.40;71.70;;;;;;5014611;28;20030;-81
2021/01/26 05:11:23;;;;;;;8.30;4.05;;;-0.40;71.20;;;;;;5013358;28;20113;-75
2021/01/26 05:13:54;;;;;;;8.07;3.80;;;-0.30;70.90;;;;;;5013209;28;20342;-76
2021/01/26 05:16:33;;;;;;;5.88;3.50;;;-0.40;70.70;;;;;;5013505;28;20483;-80
2021/01/26 05:19:16;;;;;;;7.80;3.55;;;-0.40;70.40;;;;;;5013565;28;20034;-76
2021/01/26 05:22:24;;;;;;;5.35;3.33;;;-0.40;70.70;;;;;;5013393;28;20045;-81
2021/01/26 05:25:13;;;;;;;8.77;4.10;;;-0.40;70.80;;;;;;5014531;28;20494;-75
2021/01/26 05:27:39;;;;;;;7.43;3.88;;;-0.40;71.30;;;;;;5013281;28;20025;-75
2021/01/26 05:30:09;;;;;;;6.53;3.97;;;-0.40;71.50;;;;;;5012963;28;20026;-75
2021/01/26 05:32:35;;;;;;;6.38;3.33;;;-0.40;71.50;;;;;;5013190;28;20030;-75
2021/01/26 05:35:02;;;;;;;6.60;3.45;;;-0.40;71.20;;;;;;5014317;28;20033;-75
2021/01/26 05:37:28;;;;;;;8.68;3.20;;;-0.40;71.40;;;;;;5014069;28;20120;-75
2021/01/26 05:40:21;;;;;;;8.40;3.25;;;-0.40;71.20;;;;;;5014099;28;20123;-75
2021/01/26 05:42:54;;;;;;;7.78;3.25;;;-0.30;70.40;;;;;;5012978;28;20022;-76
2021/01/26 05:45:25;;;;;;;5.47;2.80;;;-0.30;70.40;;;;;;5014068;28;20026;-77
2021/01/26 05:48:15;;;;;;;8.60;3.50;;;-0.20;70.00;;;;;;5012635;28;20029;-74
2021/01/26 05:50:42;;;;;;;7.80;3.10;;;-0.20;69.70;;;;;;5008462;28;20022;-75
2021/01/26 05:53:18;;;;;;;6.20;2.95;;;-0.30;71.20;;;;;;5012404;28;20112;-75
2021/01/26 05:55:57;;;;;;;6.22;2.63;;;-0.30;70.40;;;;;;5013966;28;20482;-75
2021/01/26 05:58:29;;;;;;;7.47;3.38;;;-0.30;70.50;;;;;;5013792;28;20087;-75
2021/01/26 06:01:00;;;;;;;5.82;3.33;;;-0.30;70.50;;;;;;5013911;28;20042;-76
2021/01/26 06:03:26;;;;;;;4.45;2.63;;;-0.30;70.40;;;;;;5013647;28;20042;-77
2021/01/26 06:06:02;;;;;;;6.60;3.30;;;-0.30;70.40;;;;;;5012440;28;20098;-76
2021/01/26 06:08:28;;;;;;;7.35;2.70;;;-0.30;70.50;;;;;;5012367;28;20021;-77
2021/01/26 06:10:55;;;;;;;3.95;2.17;;;-0.30;70.50;;;;;;5012495;28;20075;-76
2021/01/26 06:13:25;;;;;;;7.97;3.65;;;-0.30;70.40;;;;;;5011837;28;20061;-76
2021/01/26 06:16:06;;;;;;;6.50;2.35;;;-0.20;70.70;;;;;;5012399;28;20034;-76
2021/01/26 06:18:32;;;;;;;6.95;2.60;;;-0.20;70.60;;;;;;5012132;28;20021;-76
2021/01/26 06:21:11;;;;;;;8.60;2.92;;;-0.30;71.20;;;;;;5013434;28;20367;-76
2021/01/26 06:23:37;;;;;;;7.93;3.15;;;-0.20;70.40;;;;;;5012519;28;20022;-78
2021/01/26 06:26:09;;;;;;;5.30;2.72;;;-0.20;70.10;;;;;;5013548;28;20109;-76
2021/01/26 06:29:12;;;;;;;3.80;2.30;;;-0.20;70.20;;;;;;5012399;28;20022;-76
2021/01/26 06:31:46;;;;;;;5.57;2.38;;;-0.20;70.30;;;;;;5013404;28;20029;-76
2021/01/26 06:34:37;;;;;;;4.72;1.90;;;-0.20;70.30;;;;;;5012233;28;20085;-76
2021/01/26 06:37:31;;;;;;;5.90;2.78;;;-0.20;70.30;;;;;;5012040;28;20041;-74
2021/01/26 06:40:19;;;;;;;8.45;2.50;;;-0.20;70.10;;;;;;5011865;28;20029;-75
2021/01/26 06:43:24;;;;;;;6.68;2.60;;;-0.20;70.30;;;;;;5013175;28;20402;-75
2021/01/26 06:46:07;;;;;;;4.65;2.15;;;-0.20;70.50;;;;;;4979892;28;20056;-75
2021/01/26 06:48:57;;;;;;;7.82;2.55;;;-0.10;70.30;;;;;;5012217;28;20417;-75
2021/01/26 06:51:42;;;;;;;3.63;1.83;;;-0.20;70.20;;;;;;5012899;28;20600;-76
2021/01/26 06:54:50;;;;;;;6.40;2.25;;;-0.10;70.10;;;;;;5011703;28;20052;-76
2021/01/26 06:57:42;;;;;;;8.43;2.20;;;-0.10;69.80;;;;;;5011657;28;20076;-76
2021/01/26 07:00:33;;;;;;;5.97;2.70;;;-0.10;69.50;;;;;;5013093;28;20022;-76
2021/01/26 07:03:19;;;;;;;6.57;2.00;;;-0.10;69.50;;;;;;5015214;28;20045;-76
2021/01/26 07:06:16;;;;;;;5.15;1.63;;;-0.10;69.40;;;;;;5013174;28;20057;-76
2021/01/26 07:08:47;;;;;;;;;;;0.00;69.00;;;;;;5019971;28;20032;-77
2021/01/26 07:11:31;;;;;;;3.35;1.67;;;0.00;69.90;;;;;;5013507;28;19909;-76
2021/01/26 07:14:19;;;;;;;6.03;2.00;;;0.00;69.20;;;;;;5014737;28;20022;-76
2021/01/26 07:16:59;;;;;;;4.53;2.15;;;0.00;69.20;;;;;;5012899;28;20467;-77
2021/01/26 07:19:35;;;;;;;3.90;2.05;;;0.00;69.10;;;;;;5012771;28;20026;-77
2021/01/26 07:22:16;;;;;;;4.03;1.92;;;0.00;69.30;;;;;;5011338;28;20128;-82
2021/01/26 07:24:58;;;;;;;4.70;2.22;;;0.00;69.30;;;;;;5013773;28;20068;-77
2021/01/26 07:27:40;;;;;;;6.75;2.42;;;0.00;69.50;;;;;;5015381;28;20079;-76
2021/01/26 07:30:26;;;;;;;5.00;2.00;;;0.00;69.90;;;;;;5015537;28;20026;-76
2021/01/26 07:32:56;;;;;;;3.72;2.00;;;-0.10;69.90;;;;;;5016633;28;20026;-76
2021/01/26 07:35:28;;;;;;;4.43;2.72;;;-0.10;69.90;;;;;;5015295;28;20121;-77
2021/01/26 07:38:02;;;;;;;6.55;2.20;;;-0.10;70.00;;;;;;5015350;28;20113;-77
2021/01/26 07:40:34;;;;;;;5.55;2.30;;;0.00;70.00;;;;;;5015284;28;20442;-77
2021/01/26 07:43:07;;;;;;;5.57;2.50;;;0.00;69.80;;;;;;5014965;28;20022;-76
2021/01/26 07:45:38;;;;;;;6.57;2.83;;;0.00;70.00;;;;;;5015363;28;20026;-76
2021/01/26 07:48:15;;;;;;;6.95;2.47;;;0.00;69.70;;;;;;5014648;28;20021;-76
2021/01/26 07:50:54;;;;;;;7.75;3.08;;;0.10;69.60;;;;;;5016327;28;20022;-76
2021/01/26 07:53:31;;;;;;;6.68;2.20;;;0.10;69.10;;;;;;5014798;28;20022;-76
2021/01/26 07:56:34;;;;;;;4.70;2.20;;;0.10;69.20;;;;;;5014673;28;20045;-76
2021/01/26 07:59:05;;;;;;;6.22;2.40;;;0.10;69.40;;;;;;4998598;28;20430;-75
2021/01/26 08:01:37;;;;;;;3.58;2.22;;;0.10;70.50;;;;;;4998950;28;20058;-77
2021/01/26 08:04:04;;;;;;;6.25;2.25;;;0.20;70.00;;;;;;5016068;28;20041;-79
2021/01/26 08:06:35;;;;;;;5.07;2.30;;;0.50;69.90;;;;;;5014597;28;20470;-75
2021/01/26 08:09:05;;;;;;;8.10;2.25;;;0.40;68.80;;;;;;5015982;28;20037;-82
2021/01/26 08:11:31;;;;;;;5.03;2.05;;;0.40;68.20;;;;;;5015810;28;20022;-78
2021/01/26 08:14:01;;;;;;;6.30;1.80;;;0.60;68.00;;;;;;5015917;28;20029;-76
2021/01/26 08:16:39;;;;;;;7.47;2.30;;;0.90;67.50;;;;;;5015874;28;20026;-78
2021/01/26 08:19:19;;;;;;;4.70;1.80;;;1.30;66.60;;;;;;5016247;28;20025;-75
2021/01/26 08:21:47;;;;;;;5.18;2.33;;;1.80;65.30;;;;;;5015955;28;20029;-78
2021/01/26 08:24:22;;;;;;;4.50;1.80;;;1.60;63.30;;;;;;5014240;28;20033;-79
2021/01/26 08:26:53;;;;;;;3.63;1.80;;;1.10;63.40;;;;;;5014484;28;20112;-78
2021/01/26 08:29:37;;;;;;;7.10;2.53;;;1.00;64.30;;;;;;5013927;28;20175;-78
2021/01/26 08:32:24;;;;;;;6.82;2.40;;;0.70;65.40;;;;;;5014138;28;20057;-76
2021/01/26 08:35:07;;;;;;;7.45;2.20;;;0.60;66.20;;;;;;5013858;28;20112;-77
2021/01/26 08:37:42;;;;;;;8.25;2.45;;;0.60;66.90;;;;;;5014696;28;20034;-78
2021/01/26 08:40:32;;;;;;;5.32;2.60;;;0.50;67.40;;;;;;5013719;28;20048;-76
2021/01/26 08:43:03;;;;;;;5.43;1.95;;;0.50;67.60;;;;;;5012423;28;20418;-76
2021/01/26 08:45:29;;;;;;;7.63;2.28;;;0.60;67.60;;;;;;5013697;28;20026;-78
2021/01/26 08:48:06;;;;;;;5.35;2.08;;;0.60;68.10;;;;;;5013678;28;20437;-77
2021/01/26 08:50:35;;;;;;;7.78;2.17;;;0.50;68.00;;;;;;5013693;28;20026;-78
2021/01/26 08:53:28;;;;;;;5.00;2.75;;;0.60;68.10;;;;;;5013362;28;20032;-76
2021/01/26 08:55:59;;;;;;;5.72;2.38;;;0.60;68.20;;;;;;5013432;28;20437;-77
2021/01/26 08:58:43;;;;;;;5.07;2.13;;;0.60;68.30;;;;;;5013081;28;20037;-76
2021/01/26 09:01:34;;;;;;;6.85;2.55;;;0.60;68.50;;;;;;5013181;28;20037;-76
2021/01/26 09:04:15;;;;;;;5.30;2.35;;;0.50;68.90;;;;;;5018907;28;20048;-77
2021/01/26 09:06:43;;;;;;;7.18;2.53;;;0.50;69.20;;;;;;5013396;28;20026;-76
2021/01/26 09:09:24;;;;;;;5.20;2.58;;;0.50;69.70;;;;;;5013270;28;20035;-75
2021/01/26 09:11:56;;;;;;;8.15;2.25;;;0.50;70.00;;;;;;5013092;28;20506;-77
2021/01/26 09:14:41;;;;;;;7.63;2.97;;;0.40;69.80;;;;;;5012822;28;20025;-78
2021/01/26 09:17:21;;;;;;;6.70;2.25;;;0.50;70.20;;;;;;5013069;28;20561;-78
2021/01/26 09:20:10;;;;;;;7.88;2.15;;;0.50;70.40;;;;;;5015136;28;20092;-81
2021/01/26 09:22:36;;;;;;;4.75;2.20;;;0.50;70.70;;;;;;5015123;28;20037;-80
2021/01/26 09:25:23;;;;;;;6.68;3.72;;;0.60;70.60;;;;;;5015553;28;20034;-81
2021/01/26 09:28:04;;;;;;;6.85;2.67;;;0.70;70.40;;;;;;5014626;28;20034;-76
2021/01/26 09:30:31;;;;;;;6.05;2.53;;;0.80;69.90;;;;;;5014078;28;20025;-76
2021/01/26 09:33:04;;;;;;;10.02;2.80;;;0.70;70.20;;;;;;5014001;28;20024;-77
2021/01/26 09:35:39;;;;;;;4.82;2.70;;;0.90;70.50;;;;;;5013392;28;20029;-76
2021/01/26 09:38:14;;;;;;;7.97;2.63;;;1.00;70.40;;;;;;5012807;28;20101;-77
2021/01/26 09:40:42;;;;;;;;;;;1.10;70.00;;;;;;5013132;28;20044;-77
2021/01/26 09:43:10;;;;;;;6.30;3.00;;;1.10;69.60;;;;;;5012354;28;20385;-77
2021/01/26 09:45:36;;;;;;;9.02;3.47;;;1.20;69.40;;;;;;5012189;28;20395;-77
2021/01/26 09:48:01;;;;;;;12.07;4.05;;;1.20;69.20;;;;;;5011871;28;20533;-79
2021/01/26 09:50:28;;;;;;;15.27;3.67;;;1.10;69.90;;;;;;5012455;28;20030;-75
2021/01/26 09:53:03;;;;;;;7.22;2.90;;;1.20;69.50;;;;;;5012469;28;20018;-75
2021/01/26 09:55:31;;;;;;;6.32;3.25;;;1.20;69.60;;;;;;5012349;28;20434;-75
2021/01/26 09:57:58;;;;;;;5.45;2.83;;;1.20;70.00;;;;;;5012419;28;20057;-77
2021/01/26 10:00:27;;;;;;;7.80;3.03;;;1.20;70.10;;;;;;5013439;28;20026;-75
2021/01/26 10:02:59;;;;;;;8.32;3.20;;;1.30;70.10;;;;;;5011998;28;20100;-76
2021/01/26 10:05:27;;;;;;;6.53;2.83;;;1.30;70.00;;;;;;5013709;28;20032;-76
2021/01/26 10:08:22;;;;;;;8.38;2.80;;;1.10;70.30;;;;;;5012213;28;20356;-76
2021/01/26 10:10:48;;;;;;;9.02;3.42;;;1.20;70.50;;;;;;5013539;28;20080;-79
2021/01/26 10:13:30;;;;;;;6.75;3.20;;;1.20;70.50;;;;;;5012459;28;20049;-75
2021/01/26 10:15:57;;;;;;;8.30;2.85;;;1.30;70.30;;;;;;5011470;28;20045;-75
2021/01/26 10:18:28;;;;;;;11.77;3.47;;;1.30;69.70;;;;;;5011624;28;20429;-75
2021/01/26 10:21:00;;;;;;;7.78;2.35;;;1.20;69.70;;;;;;5011839;28;20033;-76
2021/01/26 10:23:30;;;;;;;5.35;2.25;;;1.10;69.70;;;;;;5011875;28;20022;-76
2021/01/26 10:26:15;;;;;;;8.65;3.13;;;1.00;69.90;;;;;;5013130;28;20057;-75
2021/01/26 10:28:59;;;;;;;5.30;2.38;;;1.00;70.20;;;;;;5011920;28;20026;-78
2021/01/26 10:31:25;;;;;;;7.07;2.65;;;1.00;70.20;;;;;;5012958;28;20045;-74
2021/01/26 10:33:51;;;;;;;11.35;2.60;;;1.20;69.60;;;;;;5011388;28;20045;-75
2021/01/26 10:36:17;;;;;;;7.00;2.30;;;1.30;69.00;;;;;;5011375;28;20486;-75
2021/01/26 10:38:44;;;;;;;5.63;2.30;;;1.30;68.40;;;;;;5011881;28;20026;-74
2021/01/26 10:41:24;;;;;;;4.10;2.00;;;1.30;68.50;;;;;;5011109;28;20377;-75
2021/01/26 10:44:05;;;;;;;8.32;2.45;;;1.40;67.60;;;;;;5011711;28;20022;-77
2021/01/26 10:46:35;;;;;;;11.15;3.03;;;1.30;67.70;;;;;;5011754;28;20042;-75
2021/01/26 10:49:24;;;;;;;7.05;2.30;;;1.50;67.00;;;;;;5011644;28;20474;-80
2021/01/26 10:51:49;;;;;;;6.20;2.60;;;1.70;66.40;;;;;;5011841;28;20129;-77
2021/01/26 10:54:16;;;;;;;7.47;2.72;;;1.70;65.90;;;;;;5011351;28;20022;-75
2021/01/26 10:56:43;;;;;;;6.28;2.75;;;1.80;65.70;;;;;;5011334;28;20393;-75
2021/01/26 10:59:09;;;;;;;6.15;2.55;;;1.80;65.40;;;;;;5012416;28;20030;-76
2021/01/26 11:01:36;;;;;;;5.40;2.38;;;1.80;65.40;;;;;;5015599;28;20117;-79
2021/01/26 11:04:02;;;;;;;10.70;2.97;;;1.80;64.90;;;;;;5016639;28;20042;-77
2021/01/26 11:06:27;;;;;;;4.93;2.33;;;1.70;65.00;;;;;;5015162;28;20049;-76
2021/01/26 11:08:53;;;;;;;10.13;3.30;;;1.70;65.50;;;;;;5015288;28;20022;-79
2021/01/26 11:11:23;;;;;;;10.68;2.45;;;1.80;65.10;;;;;;5016843;28;20387;-81
2021/01/26 11:13:49;;;;;;;4.65;2.00;;;1.90;64.90;;;;;;5015153;28;20026;-82
2021/01/26 11:16:15;;;;;;;6.93;2.55;;;2.00;64.90;;;;;;5016485;28;20084;-81
2021/01/26 11:18:41;;;;;;;6.78;2.40;;;2.00;64.80;;;;;;5015277;28;20018;-81
2021/01/26 11:21:08;;;;;;;7.25;2.63;;;2.00;65.00;;;;;;5015205;28;20037;-83
2021/01/26 11:23:33;;;;;;;6.20;2.33;;;2.20;64.60;;;;;;5016417;28;20100;-83
2021/01/26 11:25:59;;;;;;;7.13;2.60;;;2.10;64.70;;;;;;5015280;28;20482;-83
2021/01/26 11:28:26;;;;;;;9.32;3.45;;;2.00;64.80;;;;;;5015209;28;20018;-81
2021/01/26 11:30:51;;;;;;;7.63;2.67;;;2.20;64.70;;;;;;5015003;28;20105;-81
2021/01/26 11:33:17;;;;;;;7.35;3.00;;;2.30;64.00;;;;;;5016329;28;20053;-83
2021/01/26 11:35:42;;;;;;;7.78;3.15;;;2.20;63.80;;;;;;5015453;28;20034;-81
2021/01/26 11:38:08;;;;;;;9.80;3.13;;;2.10;63.80;;;;;;5016062;28;20463;-82
2021/01/26 11:40:34;;;;;;;8.98;3.00;;;2.20;64.30;;;;;;5014963;28;20036;-82
2021/01/26 11:43:00;;;;;;;10.52;2.67;;;2.30;64.20;;;;;;5014865;28;20018;-82
2021/01/26 11:45:30;;;;;;;9.73;3.95;;;2.50;63.40;;;;;;5014639;28;20029;-82
2021/01/26 11:47:57;;;;;;;7.80;3.30;;;2.60;62.90;;;;;;5014938;28;20022;-82
2021/01/26 11:50:23;;;;;;;10.50;3.47;;;2.70;62.60;;;;;;5016023;28;20040;-82
2021/01/26 11:52:49;;;;;;;11.05;3.15;;;2.90;61.60;;;;;;5014692;28;20025;-81
2021/01/26 11:55:20;;;;;;;10.90;3.30;;;3.00;60.80;;;;;;5014144;28;20026;-81
2021/01/26 11:57:46;;;;;;;6.35;2.47;;;2.80;61.30;;;;;;5014917;28;20498;-81
2021/01/26 12:00:16;;;;;;;4.10;2.55;;;2.50;61.10;;;;;;5014456;28;20022;-82
2021/01/26 12:02:42;;;;;;;7.97;2.33;;;2.40;61.20;;;;;;5015867;28;20125;-82
2021/01/26 12:05:08;;;;;;;11.68;3.47;;;2.30;61.70;;;;;;5014718;28;20080;-81
2021/01/26 12:07:34;;;;;;;7.38;2.25;;;2.30;62.50;;;;;;5014596;28;20471;-82
2021/01/26 12:10:00;;;;;;;6.63;2.55;;;2.50;62.10;;;;;;5013860;28;20574;-79
2021/01/26 12:12:26;;;;;;;5.63;2.35;;;2.40;62.40;;;;;;5015745;28;20182;-82
2021/01/26 12:14:52;;;;;;;6.35;2.13;;;2.50;62.00;;;;;;5015436;28;20449;-77
2021/01/26 12:17:17;;;;;;;6.15;2.70;;;2.20;62.40;;;;;;5014079;28;20029;-78
2021/01/26 12:19:43;;;;;;;5.68;2.22;;;2.20;63.00;;;;;;5013715;28;20030;-77
2021/01/26 12:22:09;;;;;;;4.05;1.77;;;2.20;63.20;;;;;;5013910;28;20021;-76
2021/01/26 12:24:34;;;;;;;8.77;2.38;;;2.20;62.70;;;;;;5013932;28;20026;-81
2021/01/26 12:27:01;;;;;;;2.83;1.70;;;2.20;63.20;;;;;;5015148;28;20437;-77
2021/01/26 12:29:28;;;;;;;6.80;2.05;;;2.20;63.20;;;;;;5013993;28;20078;-76
2021/01/26 12:31:53;;;;;;;7.97;2.20;;;2.30;62.10;;;;;;4997421;28;20122;-77
2021/01/26 12:34:19;;;;;;;5.03;2.25;;;2.50;61.90;;;;;;5012928;28;20124;-77
2021/01/26 12:36:46;;;;;;;9.60;2.67;;;2.40;61.80;;;;;;5015095;28;20029;-76
2021/01/26 12:39:11;;;;;;;3.15;1.60;;;2.10;61.60;;;;;;5013342;28;20018;-78
2021/01/26 12:41:38;;;;;;;6.13;2.00;;;2.30;61.40;;;;;;5013574;28;20127;-78
2021/01/26 12:44:06;;;;;;;4.55;1.80;;;2.20;61.20;;;;;;5013137;28;20479;-78
2021/01/26 12:46:35;;;;;;;17.05;2.42;;;2.40;61.10;;;;;;5013389;28;20050;-77
2021/01/26 12:49:01;;;;;;;6.15;1.95;;;2.50;60.90;;;;;;5012839;28;20077;-80
2021/01/26 12:51:27;;;;;;;9.77;2.38;;;2.70;60.40;;;;;;5014770;28;20033;-80
2021/01/26 12:53:53;;;;;;;6.93;1.70;;;2.90;59.70;;;;;;5013215;28;20030;-80
2021/01/26 12:56:18;;;;;;;9.82;2.95;;;3.10;59.30;;;;;;5014564;28;20041;-77
2021/01/26 12:58:44;;;;;;;5.95;2.08;;;3.20;58.60;;;;;;5012857;28;20497;-78
2021/01/26 13:01:11;;;;;;;6.00;1.58;;;3.70;57.90;;;;;;5013245;28;20092;-79
2021/01/26 13:03:37;;;;;;;6.72;2.42;;;4.30;57.20;;;;;;5013400;28;20444;-81
2021/01/26 13:06:02;;;;;;;5.95;1.58;;;4.70;54.10;;;;;;5014870;28;20064;-81
2021/01/26 13:08:28;;;;;;;4.30;1.80;;;4.80;52.90;;;;;;5012976;28;20030;-80
2021/01/26 13:10:55;;;;;;;3.83;1.95;;;5.10;51.90;;;;;;4996885;28;20092;-78
2021/01/26 13:13:20;;;;;;;3.40;1.58;;;5.20;50.90;;;;;;5013179;28;20564;-76
2021/01/26 13:15:46;;;;;;;3.40;1.67;;;5.60;50.20;;;;;;5012407;28;20156;-78
2021/01/26 13:18:12;;;;;;;4.13;1.70;;;5.90;49.30;;;;;;5012482;28;20336;-76
2021/01/26 13:20:38;;;;;;;3.65;1.65;;;5.20;48.50;;;;;;5013306;28;20498;-78